Time;durP1;ratioP1;P1;durP2;ratioP2;P2;SDS_P1;SDS_P2;PMS_P1;PMS_P2;Temp;Humidity;BMP_temperature;BMP_pressure;BME280_temperature;BME280_humidity;BME280_pressure;Samples;Min_cycle;Max_cycle;Signal;HPM_P1;HPM_P2
2020/12/23 00:00:35;;;;;;;17.27;7.68;;;4.20;99.90;;;;;;5008159;28;20480;-93
2020/12/23 00:03:01;;;;;;;16.15;7.93;;;4.20;99.90;;;;;;5008761;28;20019;-94
2020/12/23 00:05:28;;;;;;;16.23;7.88;;;4.20;99.90;;;;;;5008334;28;20049;-94
2020/12/23 00:07:59;;;;;;;13.27;6.30;;;4.20;99.90;;;;;;4992758;28;20061;-94
2020/12/23 00:10:27;;;;;;;12.25;6.47;;;4.20;99.90;;;;;;5009808;28;20026;-96
2020/12/23 00:12:58;;;;;;;12.07;6.68;;;4.20;99.90;;;;;;5010838;28;20038;-94
2020/12/23 00:15:24;;;;;;;10.95;6.00;;;4.20;99.90;;;;;;5010859;28;20086;-95
2020/12/23 00:17:51;;;;;;;13.00;6.50;;;4.20;99.90;;;;;;5010926;28;20045;-94
2020/12/23 00:20:17;;;;;;;12.48;4.97;;;4.20;99.90;;;;;;4993727;28;20121;-96
2020/12/23 00:26:02;;;;;;;13.20;6.00;;;4.20;99.90;;;;;;4950248;29;20541;-93
2020/12/23 00:28:32;;;;;;;10.63;4.93;;;4.20;99.90;;;;;;4934725;29;20043;-93
2020/12/23 00:31:03;;;;;;;9.15;5.38;;;4.20;99.90;;;;;;4934493;29;20031;-95
2020/12/23 00:33:39;;;;;;;13.30;6.07;;;4.20;99.90;;;;;;4934492;29;20051;-94
2020/12/23 00:37:05;;;;;;;12.75;6.15;;;4.20;99.90;;;;;;4960772;28;20036;-95
2020/12/23 00:39:50;;;;;;;12.50;7.18;;;4.10;99.90;;;;;;4978796;28;20031;-96
2020/12/23 00:42:31;;;;;;;10.90;6.32;;;4.10;99.90;;;;;;4976632;29;20011;-95
2020/12/23 00:45:32;;;;;;;9.60;5.60;;;4.10;99.90;;;;;;4976583;29;20035;-95
2020/12/23 00:48:25;;;;;;;10.25;5.95;;;4.10;99.90;;;;;;4974222;28;20039;-95
2020/12/23 01:00:45;;;;;;;8.68;4.30;;;4.10;99.90;;;;;;4919611;29;20107;-94
2020/12/23 01:03:17;;;;;;;8.20;3.70;;;4.00;99.90;;;;;;4940266;29;20020;-95
2020/12/23 01:05:45;;;;;;;;;;;4.10;99.90;;;;;;4940878;29;20047;-94
2020/12/23 01:08:22;;;;;;;7.70;3.15;;;4.00;99.90;;;;;;4940071;29;19903;-95
2020/12/23 01:11:11;;;;;;;4.03;2.65;;;4.00;99.90;;;;;;4956443;29;20032;-95
2020/12/23 01:13:48;;;;;;;4.25;2.60;;;4.00;99.90;;;;;;4939629;29;20059;-95
2020/12/23 01:16:24;;;;;;;5.78;3.08;;;4.00;99.90;;;;;;4924958;29;20140;-94
2020/12/23 01:19:01;;;;;;;6.53;2.65;;;4.00;99.90;;;;;;4953560;29;20024;-95
2020/12/23 01:21:54;;;;;;;;;;;;;;;;;;;;;
2020/12/23 01:24:26;;;;;;;3.60;1.98;;;4.00;99.90;;;;;;4932023;29;20079;-94
2020/12/23 01:26:57;;;;;;;4.43;2.38;;;4.00;99.90;;;;;;4913706;29;20040;-94
2020/12/23 01:29:27;;;;;;;3.22;1.80;;;4.00;99.90;;;;;;4915934;29;20039;-95
2020/12/23 01:31:56;;;;;;;3.58;2.35;;;4.00;99.90;;;;;;4916935;29;20040;-95
2020/12/23 01:34:25;;;;;;;4.05;2.33;;;4.10;99.90;;;;;;4934600;28;20043;-95
2020/12/23 01:36:57;;;;;;;4.88;2.28;;;4.10;99.90;;;;;;4976316;28;20043;-95
2020/12/23 01:39:28;;;;;;;4.22;2.60;;;4.10;99.90;;;;;;4993181;28;20023;-96
2020/12/23 01:42:03;;;;;;;6.78;3.17;;;4.10;99.90;;;;;;4976991;28;20066;-95
2020/12/23 01:44:41;;;;;;;5.53;3.20;;;4.10;99.90;;;;;;4995320;28;20114;-94
2020/12/23 01:47:33;;;;;;;5.78;2.72;;;4.10;99.90;;;;;;4975027;29;20055;-95
2020/12/23 01:50:27;;;;;;;15.48;4.55;;;4.10;99.90;;;;;;4979844;28;20039;-96
2020/12/23 01:53:30;;;;;;;7.47;4.13;;;4.10;99.90;;;;;;4996039;28;20073;-95
2020/12/23 01:56:14;;;;;;;10.45;4.28;;;4.10;99.90;;;;;;4994903;28;20047;-95
2020/12/23 01:58:50;;;;;;;7.15;4.28;;;4.00;99.90;;;;;;4972193;28;20042;-96
2020/12/23 02:01:25;;;;;;;7.82;4.68;;;4.10;99.90;;;;;;4972611;28;20030;-94
2020/12/23 02:04:16;;;;;;;9.85;5.38;;;4.00;99.90;;;;;;4991062;28;20461;-95
2020/12/23 02:06:53;;;;;;;10.65;4.28;;;4.00;99.90;;;;;;4980433;28;20015;-95
2020/12/23 02:09:27;;;;;;;8.23;4.82;;;4.00;99.90;;;;;;4996517;28;20026;-96
2020/12/23 02:12:04;;;;;;;9.88;5.50;;;4.00;99.90;;;;;;4991390;28;20031;-95
2020/12/23 02:17:33;;;;;;;8.75;4.68;;;4.00;99.90;;;;;;4993294;28;20057;-94
2020/12/23 02:20:08;;;;;;;8.80;4.70;;;4.00;99.90;;;;;;4977180;28;20039;-95
2020/12/23 02:22:35;;;;;;;9.20;5.13;;;4.00;99.90;;;;;;4990375;28;20102;-95
2020/12/23 02:25:05;;;;;;;9.27;5.55;;;4.00;99.90;;;;;;4973665;28;20037;-95
2020/12/23 02:27:40;;;;;;;8.00;5.13;;;4.00;99.90;;;;;;4984553;28;20045;-95
2020/12/23 02:30:13;;;;;;;9.77;5.53;;;4.00;99.90;;;;;;4960733;28;20041;-95
2020/12/23 02:32:52;;;;;;;7.13;5.15;;;4.00;99.90;;;;;;4965258;28;20054;-95
2020/12/23 02:35:22;;;;;;;11.95;7.05;;;4.00;99.90;;;;;;5012043;28;20108;-95
2020/12/23 02:37:48;;;;;;;12.50;7.15;;;3.90;99.90;;;;;;4996518;28;20038;-93
2020/12/23 02:40:19;;;;;;;8.43;4.35;;;3.90;99.90;;;;;;5014169;28;20121;-95
2020/12/23 02:42:47;;;;;;;11.40;5.90;;;4.00;99.90;;;;;;5012136;28;20018;-94
2020/12/23 02:45:21;;;;;;;10.65;6.40;;;3.90;99.90;;;;;;5012820;28;20086;-95
2020/12/23 02:48:16;;;;;;;14.70;7.05;;;4.00;99.90;;;;;;5031184;28;20033;-96
2020/12/23 02:50:49;;;;;;;9.70;6.32;;;3.90;99.90;;;;;;5027854;28;20041;-94
2020/12/23 02:53:17;;;;;;;8.57;5.30;;;3.90;99.90;;;;;;5016234;28;20038;-94
2020/12/23 02:55:52;;;;;;;9.82;5.90;;;3.90;99.90;;;;;;5013659;28;20040;-96
2020/12/23 02:58:30;;;;;;;10.75;6.15;;;3.90;99.90;;;;;;5013636;28;20070;-94
2020/12/23 03:01:15;;;;;;;10.57;4.97;;;3.90;99.90;;;;;;5012698;28;20084;-95
2020/12/23 03:07:30;;;;;;;7.60;4.47;;;3.90;99.90;;;;;;5022997;28;20040;-96
2020/12/23 03:10:06;;;;;;;8.10;4.63;;;3.90;99.90;;;;;;5010510;28;20037;-94
2020/12/23 03:12:32;;;;;;;8.05;4.85;;;3.90;99.90;;;;;;5007806;28;20038;-94
2020/12/23 03:14:58;;;;;;;8.75;5.05;;;3.90;99.90;;;;;;5007523;28;20030;-95
2020/12/23 03:17:27;;;;;;;7.57;4.68;;;3.90;99.90;;;;;;5007266;28;20440;-94
2020/12/23 03:19:56;;;;;;;7.97;4.85;;;3.90;99.90;;;;;;5003515;28;20038;-94
2020/12/23 03:22:27;;;;;;;8.15;4.53;;;3.90;99.90;;;;;;5005843;28;20034;-95
2020/12/23 03:25:02;;;;;;;6.00;4.50;;;3.90;99.90;;;;;;5005853;28;20026;-93
2020/12/23 03:27:34;;;;;;;6.78;4.60;;;3.90;99.90;;;;;;5015062;28;20061;-94
2020/12/23 03:30:05;;;;;;;7.75;4.97;;;3.90;99.90;;;;;;5017029;28;20046;-95
2020/12/23 03:32:46;;;;;;;8.00;5.20;;;3.90;99.90;;;;;;5034576;28;20052;-94
2020/12/23 03:35:40;;;;;;;7.40;4.68;;;3.90;99.90;;;;;;5018663;28;20050;-95
2020/12/23 03:38:16;;;;;;;7.15;4.57;;;3.90;99.90;;;;;;5018727;28;20038;-95
2020/12/23 03:40:52;;;;;;;7.00;3.97;;;3.90;99.90;;;;;;5017529;28;20038;-94
2020/12/23 03:43:19;;;;;;;7.00;4.25;;;3.90;99.90;;;;;;5016035;28;20037;-94
2020/12/23 03:45:53;;;;;;;8.73;4.30;;;4.00;99.90;;;;;;4999537;28;20022;-96
2020/12/23 03:48:21;;;;;;;5.55;3.15;;;3.90;99.90;;;;;;5017139;28;20041;-94
2020/12/23 03:51:12;;;;;;;4.00;2.97;;;3.90;99.90;;;;;;5035072;28;20048;-94
2020/12/23 03:53:38;;;;;;;6.30;2.92;;;3.90;99.90;;;;;;5015527;28;20026;-94
2020/12/23 03:56:08;;;;;;;4.63;3.33;;;3.90;99.90;;;;;;5016075;28;20054;-94
2020/12/23 03:58:34;;;;;;;6.20;3.90;;;3.90;99.90;;;;;;5016139;28;20044;-94
2020/12/23 04:01:11;;;;;;;5.75;3.67;;;3.90;99.90;;;;;;5016443;28;20057;-95
2020/12/23 04:03:41;;;;;;;4.45;3.22;;;3.90;99.90;;;;;;5029446;28;20037;-95
2020/12/23 04:06:10;;;;;;;7.45;3.38;;;3.90;99.90;;;;;;5015270;28;20033;-94
2020/12/23 04:08:41;;;;;;;5.20;3.40;;;3.90;99.90;;;;;;5016838;28;20038;-94
2020/12/23 04:11:13;;;;;;;5.32;3.58;;;3.90;99.90;;;;;;5015414;28;20053;-95
2020/12/23 04:13:46;;;;;;;7.35;4.22;;;3.90;99.90;;;;;;5018555;28;20002;-95
2020/12/23 04:16:16;;;;;;;8.93;4.13;;;4.00;99.90;;;;;;5034382;28;20069;-94
2020/12/23 04:18:43;;;;;;;6.68;4.35;;;3.90;99.90;;;;;;5015697;28;20121;-95
2020/12/23 04:21:09;;;;;;;7.00;4.57;;;3.90;99.90;;;;;;5018661;28;20081;-94
2020/12/23 04:23:36;;;;;;;5.63;4.03;;;4.00;99.90;;;;;;5022012;28;20014;-94
2020/12/23 04:26:05;;;;;;;6.65;4.80;;;3.90;99.90;;;;;;5022446;28;20038;-95
2020/12/23 04:28:36;;;;;;;7.07;4.03;;;4.00;99.90;;;;;;5022321;28;20057;-95
2020/12/23 04:31:05;;;;;;;6.82;4.15;;;4.00;99.90;;;;;;5022745;28;20010;-94
2020/12/23 04:33:34;;;;;;;5.45;3.67;;;4.00;99.90;;;;;;5016925;28;20078;-95
2020/12/23 04:36:05;;;;;;;6.20;3.70;;;4.00;99.90;;;;;;5012654;28;20057;-94
2020/12/23 04:38:33;;;;;;;4.38;3.00;;;4.00;99.90;;;;;;5013718;28;20034;-94
2020/12/23 04:41:04;;;;;;;7.03;3.60;;;4.00;99.90;;;;;;5014179;28;20041;-95
2020/12/23 04:43:34;;;;;;;8.40;3.72;;;4.00;99.90;;;;;;4997770;28;20038;-94
2020/12/23 04:46:02;;;;;;;7.45;4.30;;;4.00;99.90;;;;;;5015030;28;20068;-96
2020/12/23 04:48:36;;;;;;;8.60;4.00;;;4.00;99.90;;;;;;5014399;28;20026;-94
2020/12/23 04:51:19;;;;;;;8.20;4.25;;;4.00;99.90;;;;;;5016462;28;20026;-94
2020/12/23 04:53:59;;;;;;;8.15;3.72;;;4.00;99.90;;;;;;5016859;28;20042;-94
2020/12/23 04:56:37;;;;;;;5.33;4.00;;;4.00;99.90;;;;;;5016461;28;20053;-93
2020/12/23 04:59:18;;;;;;;7.00;4.90;;;4.00;99.90;;;;;;5011521;28;20289;-96
2020/12/23 05:01:51;;;;;;;;;;;4.00;99.90;;;;;;5016765;28;20007;-96
2020/12/23 05:04:26;;;;;;;7.50;3.80;;;4.00;99.90;;;;;;5017096;28;19902;-96
2020/12/23 05:07:22;;;;;;;9.88;4.40;;;4.00;99.90;;;;;;5014634;28;20026;-95
2020/12/23 05:10:20;;;;;;;6.30;4.30;;;4.00;99.90;;;;;;5015452;28;20029;-95
2020/12/23 05:13:06;;;;;;;7.55;4.07;;;4.00;99.90;;;;;;4995910;28;20030;-95
2020/12/23 05:15:53;;;;;;;9.02;4.30;;;4.00;99.90;;;;;;5014489;28;20045;-96
2020/12/23 05:18:54;;;;;;;7.15;4.68;;;4.00;99.90;;;;;;5001824;28;20046;-94
2020/12/23 05:41:39;;;;;;;6.95;4.70;;;4.10;99.90;;;;;;1152068;22;20334;-90
2020/12/23 05:44:20;;;;;;;7.93;4.82;;;4.10;99.90;;;;;;5048412;28;20053;-95
2020/12/23 05:46:53;;;;;;;8.10;4.47;;;4.10;99.90;;;;;;5070191;28;20033;-96
2020/12/23 05:49:20;;;;;;;5.45;4.25;;;4.10;99.90;;;;;;5066894;28;20056;-95
2020/12/23 05:51:47;;;;;;;8.82;5.78;;;4.10;99.90;;;;;;5064240;28;20024;-95
2020/12/23 05:54:18;;;;;;;9.05;5.50;;;4.10;99.90;;;;;;5064630;28;20021;-96
2020/12/23 05:57:10;;;;;;;9.02;5.75;;;4.10;99.90;;;;;;5064664;28;20052;-95
2020/12/23 05:59:56;;;;;;;8.55;5.10;;;4.00;99.90;;;;;;5072268;28;20024;-96
2020/12/23 06:02:27;;;;;;;9.23;6.78;;;4.00;99.90;;;;;;5071324;28;20021;-96
2020/12/23 06:04:57;;;;;;;;;;;4.00;99.90;;;;;;5054895;28;20021;-95
2020/12/23 06:07:35;;;;;;;13.00;6.55;;;4.00;99.90;;;;;;5075620;28;19940;-94
2020/12/23 06:10:13;;;;;;;11.85;6.82;;;4.00;99.90;;;;;;5055200;28;20053;-95
2020/12/23 06:13:21;;;;;;;13.38;7.93;;;4.00;99.90;;;;;;5058938;28;20029;-95
2020/12/23 06:16:38;;;;;;;12.35;7.35;;;4.00;99.90;;;;;;5075634;28;20048;-95
2020/12/23 06:19:14;;;;;;;11.43;8.05;;;4.00;99.90;;;;;;5060180;28;20041;-96
2020/12/23 06:21:55;;;;;;;11.63;7.10;;;4.00;99.90;;;;;;5075433;28;20072;-96
2020/12/23 06:24:28;;;;;;;11.23;5.55;;;4.00;99.90;;;;;;5071847;28;20037;-95
2020/12/23 06:27:35;;;;;;;9.25;6.28;;;4.00;99.90;;;;;;5074413;28;20033;-94
2020/12/23 06:30:07;;;;;;;14.43;6.85;;;4.00;99.90;;;;;;5063800;28;20078;-94
2020/12/23 06:33:05;;;;;;;14.88;8.38;;;3.90;99.90;;;;;;5067287;28;20029;-95
2020/12/23 06:35:39;;;;;;;11.23;7.45;;;4.00;99.90;;;;;;5074864;28;20052;-95
2020/12/23 06:38:29;;;;;;;12.70;6.90;;;4.00;99.90;;;;;;5076734;28;20021;-95
2020/12/23 06:41:21;;;;;;;10.55;6.82;;;4.00;99.90;;;;;;5072802;28;20035;-95
2020/12/23 06:44:22;;;;;;;9.10;6.07;;;4.00;99.90;;;;;;5087449;28;20109;-96
2020/12/23 06:47:03;;;;;;;8.95;5.93;;;4.00;99.90;;;;;;5097956;28;20021;-94
2020/12/23 06:50:08;;;;;;;8.77;5.75;;;4.00;99.90;;;;;;5078942;28;20037;-94
2020/12/23 06:52:39;;;;;;;13.05;6.47;;;4.00;99.90;;;;;;5066426;28;20066;-96
2020/12/23 06:55:18;;;;;;;12.25;6.93;;;4.00;99.90;;;;;;5065169;28;20033;-95
2020/12/23 06:57:49;;;;;;;10.40;6.35;;;4.00;99.90;;;;;;5069387;28;20021;-95
2020/12/23 07:00:30;;;;;;;9.00;5.63;;;4.00;99.90;;;;;;5062562;28;20029;-95
2020/12/23 07:03:09;;;;;;;8.50;5.57;;;4.00;99.90;;;;;;5064087;28;20041;-94
2020/12/23 07:05:54;;;;;;;8.73;5.82;;;4.00;99.90;;;;;;5075574;28;20058;-95
2020/12/23 07:08:33;;;;;;;6.35;4.47;;;4.00;99.90;;;;;;5079173;28;20048;-95
2020/12/23 07:11:20;;;;;;;8.75;4.70;;;4.10;99.90;;;;;;5076922;28;20055;-94
2020/12/23 07:13:59;;;;;;;5.63;4.03;;;4.10;99.90;;;;;;5075632;28;20092;-94
2020/12/23 07:16:48;;;;;;;5.65;3.30;;;4.10;99.90;;;;;;5095499;28;20040;-96
2020/12/23 07:19:40;;;;;;;;;;;;;;;;;;;;;
2020/12/23 07:22:11;;;;;;;4.28;2.85;;;4.10;99.90;;;;;;5088131;28;20075;-95
2020/12/23 07:24:40;;;;;;;4.15;2.80;;;4.20;99.90;;;;;;5076060;28;20044;-96
2020/12/23 07:27:11;;;;;;;5.43;3.33;;;4.20;99.90;;;;;;5059552;28;20082;-94
2020/12/23 07:29:42;;;;;;;4.10;2.65;;;4.20;99.90;;;;;;5058648;28;20027;-94
2020/12/23 07:32:34;;;;;;;5.32;3.90;;;4.10;99.90;;;;;;5076015;28;20028;-95
2020/12/23 07:35:12;;;;;;;5.82;3.00;;;4.10;99.90;;;;;;5075511;28;20097;-94
2020/12/23 07:40:32;;;;;;;3.05;2.33;;;4.10;99.90;;;;;;5065466;28;20040;-93
2020/12/23 07:42:58;;;;;;;2.90;2.30;;;4.20;99.90;;;;;;5055543;28;20049;-93
2020/12/23 07:45:29;;;;;;;2.50;2.20;;;4.20;99.90;;;;;;5061436;28;20040;-95
2020/12/23 07:48:03;;;;;;;4.22;2.25;;;4.20;99.90;;;;;;5063112;28;20021;-96
2020/12/23 07:50:34;;;;;;;3.45;2.53;;;4.20;99.90;;;;;;5057037;28;20045;-92
2020/12/23 07:53:26;;;;;;;3.40;2.08;;;4.20;99.90;;;;;;5056126;28;20017;-94
2020/12/23 07:56:05;;;;;;;2.50;2.00;;;4.20;99.90;;;;;;5028907;28;20125;-95
2020/12/23 07:58:32;;;;;;;1.67;1.50;;;4.20;99.90;;;;;;5055015;28;20040;-94
2020/12/23 08:00:58;;;;;;;2.53;1.95;;;4.20;99.90;;;;;;5055610;28;20043;-94
2020/12/23 08:03:38;;;;;;;;;;;;;;;;;;;;;
2020/12/23 08:06:06;;;;;;;1.90;1.70;;;4.30;99.90;;;;;;5050943;28;20116;-94
2020/12/23 08:08:32;;;;;;;2.35;1.38;;;4.30;99.90;;;;;;5056638;28;20036;-95
2020/12/23 08:11:06;;;;;;;2.08;1.63;;;4.20;99.90;;;;;;5048041;28;20045;-94
2020/12/23 08:13:32;;;;;;;2.40;1.98;;;4.30;99.90;;;;;;5054413;28;20025;-94
2020/12/23 08:16:13;;;;;;;1.73;1.50;;;4.30;99.90;;;;;;5055742;28;20033;-93
2020/12/23 08:19:16;;;;;;;3.45;2.22;;;4.30;99.90;;;;;;5078839;28;20021;-94
2020/12/23 08:21:46;;;;;;;2.47;1.70;;;4.30;99.90;;;;;;5059400;28;20470;-93
2020/12/23 08:24:18;;;;;;;3.42;1.70;;;4.20;99.90;;;;;;5050157;28;20108;-95
2020/12/23 08:26:44;;;;;;;3.97;2.53;;;4.30;99.90;;;;;;5047366;28;20025;-93
2020/12/23 08:29:15;;;;;;;4.43;2.22;;;4.30;99.90;;;;;;5054341;28;20021;-95
2020/12/23 08:31:52;;;;;;;3.35;2.20;;;4.30;99.90;;;;;;5046191;28;20017;-92
2020/12/23 08:34:24;;;;;;;26.02;13.88;;;4.30;99.90;;;;;;5056255;28;20025;-93
2020/12/23 08:36:58;;;;;;;2.70;1.83;;;4.30;99.90;;;;;;5051408;28;20072;-95
2020/12/23 08:39:27;;;;;;;3.97;2.80;;;4.30;99.90;;;;;;5060839;28;20025;-94
2020/12/23 08:41:53;;;;;;;38.40;13.88;;;4.30;99.90;;;;;;5065313;28;20044;-93
2020/12/23 08:44:38;;;;;;;;;;;;;;;;;;;;;
2020/12/23 08:47:08;;;;;;;4.43;2.80;;;4.40;99.90;;;;;;5060778;28;20120;-96
2020/12/23 08:49:50;;;;;;;4.05;2.63;;;4.40;99.90;;;;;;5059143;28;20474;-95
2020/12/23 08:52:17;;;;;;;2.33;2.13;;;4.40;99.90;;;;;;5052858;28;20458;-95
2020/12/23 08:58:22;;;;;;;3.35;2.05;;;4.40;99.90;;;;;;5043069;28;20155;-96
2020/12/23 09:01:09;;;;;;;1.80;1.60;;;4.40;99.90;;;;;;5056349;28;20021;-93
2020/12/23 09:07:04;;;;;;;1.63;1.40;;;4.40;99.90;;;;;;5049077;28;20063;-96
2020/12/23 09:09:47;;;;;;;1.45;1.23;;;4.40;99.90;;;;;;4953544;29;20035;-96
2020/12/23 09:15:52;;;;;;;0.90;0.85;;;4.50;99.90;;;;;;4978387;28;20063;-94
2020/12/23 09:21:20;;;;;;;0.88;0.80;;;4.50;99.90;;;;;;5065617;23;20086;-94
2020/12/23 09:26:37;;;;;;;1.48;1.08;;;4.50;99.90;;;;;;5110859;22;20514;-95
2020/12/23 09:29:12;;;;;;;0.70;0.70;;;4.60;99.90;;;;;;5028621;28;20556;-96
2020/12/23 09:31:58;;;;;;;0.85;0.85;;;4.60;99.90;;;;;;5026472;28;20037;-96
2020/12/23 09:34:32;;;;;;;0.57;0.57;;;4.70;99.90;;;;;;5025995;28;20029;-96
2020/12/23 09:40:17;;;;;;;0.82;0.70;;;4.70;99.90;;;;;;5040369;28;20025;-95
2020/12/23 09:42:58;;;;;;;1.75;1.00;;;4.70;99.90;;;;;;5027018;28;20070;-95
2020/12/23 09:45:24;;;;;;;1.00;0.85;;;4.70;99.90;;;;;;5025004;28;20022;-95
2020/12/23 09:47:50;;;;;;;1.10;1.00;;;4.70;99.90;;;;;;5023647;28;20089;-95
2020/12/23 09:50:28;;;;;;;1.13;0.85;;;4.80;99.90;;;;;;5030920;28;20038;-96
2020/12/23 09:53:05;;;;;;;1.30;1.00;;;4.80;99.90;;;;;;5018036;28;20030;-96
2020/12/23 09:55:58;;;;;;;0.77;0.77;;;4.80;99.90;;;;;;5001134;28;20107;-96
2020/12/23 09:58:25;;;;;;;1.70;1.17;;;4.80;99.90;;;;;;5037030;28;20025;-95
2020/12/23 10:00:56;;;;;;;1.27;1.05;;;4.90;99.90;;;;;;4998985;28;20079;-95
2020/12/23 10:03:35;;;;;;;1.20;1.05;;;4.90;99.90;;;;;;5002021;28;20041;-95
2020/12/23 10:06:15;;;;;;;1.13;1.05;;;4.90;99.90;;;;;;5000944;28;20093;-96
2020/12/23 10:08:46;;;;;;;1.73;1.40;;;4.90;99.90;;;;;;5002259;28;20507;-96
2020/12/23 10:11:22;;;;;;;1.52;1.30;;;4.90;99.90;;;;;;5002666;28;20073;-94
2020/12/23 10:13:48;;;;;;;2.10;1.70;;;4.90;99.90;;;;;;5001812;28;20983;-96
2020/12/23 10:16:27;;;;;;;1.70;1.38;;;4.90;99.90;;;;;;5007164;28;20061;-96
2020/12/23 10:18:58;;;;;;;2.08;1.15;;;5.00;99.90;;;;;;5004452;28;20114;-94
2020/12/23 10:21:29;;;;;;;2.20;1.20;;;5.00;99.90;;;;;;5003453;28;20030;-96
2020/12/23 10:24:22;;;;;;;1.80;1.10;;;5.00;99.90;;;;;;5045616;28;20034;-96
2020/12/23 10:26:53;;;;;;;1.27;1.05;;;5.00;99.90;;;;;;5044601;22;20034;-96
2020/12/23 10:29:24;;;;;;;0.73;0.63;;;5.00;99.90;;;;;;5070807;28;20036;-96
2020/12/23 10:32:00;;;;;;;1.67;1.00;;;5.00;99.90;;;;;;5057941;28;20052;-96
2020/12/23 11:11:51;;;;;;;1.10;0.90;;;5.20;99.90;;;;;;5046522;28;20052;-90
2020/12/23 11:39:35;;;;;;;0.60;0.60;;;5.30;99.90;;;;;;5553272;22;20135;-94
2020/12/23 11:42:01;;;;;;;0.93;0.88;;;5.30;99.90;;;;;;5076157;28;20036;-95
2020/12/23 11:47:22;;;;;;;2.00;1.45;;;5.30;99.90;;;;;;5422474;22;20033;-94
2020/12/23 11:49:49;;;;;;;3.63;2.42;;;5.30;99.90;;;;;;5050820;28;20614;-94
2020/12/23 11:52:15;;;;;;;2.25;1.50;;;5.40;99.90;;;;;;5026337;28;20045;-95
2020/12/23 11:54:40;;;;;;;1.63;1.10;;;5.40;99.90;;;;;;5025813;28;20659;-94
2020/12/23 11:57:06;;;;;;;1.38;0.88;;;5.40;99.90;;;;;;5041634;28;20045;-95
2020/12/23 11:59:32;;;;;;;0.70;0.70;;;5.40;99.90;;;;;;5025814;28;20017;-93
2020/12/23 12:01:57;;;;;;;1.02;0.90;;;5.40;99.90;;;;;;5027170;28;20021;-93
2020/12/23 12:04:23;;;;;;;0.73;0.60;;;5.50;99.90;;;;;;5024195;28;20032;-93
2020/12/23 12:06:56;;;;;;;0.68;0.60;;;5.50;99.90;;;;;;5023618;28;20095;-92
2020/12/23 12:09:21;;;;;;;0.80;0.80;;;5.50;99.90;;;;;;5025364;28;20095;-93
2020/12/23 12:11:51;;;;;;;0.82;0.70;;;5.50;99.90;;;;;;5027077;28;20049;-92
2020/12/23 12:14:17;;;;;;;0.80;0.70;;;5.50;99.90;;;;;;5022835;28;20035;-92
2020/12/23 12:16:46;;;;;;;0.38;0.38;;;5.50;99.90;;;;;;5029058;28;20033;-93
2020/12/23 12:19:14;;;;;;;0.75;0.70;;;5.50;99.90;;;;;;5026166;28;20031;-94
2020/12/23 12:21:39;;;;;;;1.27;0.90;;;5.50;99.90;;;;;;5024332;28;20124;-94
2020/12/23 12:24:05;;;;;;;0.88;0.70;;;5.50;99.90;;;;;;5021558;28;20108;-94
2020/12/23 12:26:36;;;;;;;0.55;0.52;;;5.50;99.90;;;;;;5041860;28;20021;-92
2020/12/23 12:29:03;;;;;;;1.00;0.80;;;5.60;99.90;;;;;;5025983;28;20028;-93
2020/12/23 12:31:30;;;;;;;1.33;0.90;;;5.60;99.90;;;;;;5008169;28;20034;-93
2020/12/23 12:33:56;;;;;;;1.10;0.95;;;5.60;99.90;;;;;;5024199;28;20398;-93
2020/12/23 12:36:24;;;;;;;0.60;0.60;;;5.50;99.90;;;;;;5021571;28;20048;-93
2020/12/23 12:38:52;;;;;;;1.10;0.60;;;5.50;99.90;;;;;;5024249;28;20021;-91
2020/12/23 12:41:28;;;;;;;0.40;0.40;;;5.50;99.90;;;;;;5024289;28;20079;-94
2020/12/23 12:43:55;;;;;;;0.45;0.45;;;5.50;99.90;;;;;;5026699;28;20021;-96
2020/12/23 12:46:25;;;;;;;0.30;0.30;;;5.50;99.90;;;;;;5025499;28;20072;-95
2020/12/23 12:48:50;;;;;;;0.70;0.40;;;5.50;99.90;;;;;;5025856;28;20025;-95
2020/12/23 12:51:27;;;;;;;0.22;0.22;;;5.40;99.90;;;;;;5024795;28;20033;-95
2020/12/23 12:53:53;;;;;;;0.63;0.40;;;5.40;99.90;;;;;;5027086;28;20053;-96
2020/12/23 12:56:27;;;;;;;0.57;0.47;;;5.40;99.90;;;;;;5023418;28;20040;-96
2020/12/23 12:58:56;;;;;;;0.20;0.20;;;5.40;99.90;;;;;;5027498;28;20025;-96
2020/12/23 13:01:23;;;;;;;0.32;0.28;;;5.40;99.90;;;;;;5029565;28;20541;-96
2020/12/23 13:03:53;;;;;;;0.25;0.25;;;5.40;99.90;;;;;;5029657;28;20033;-96
2020/12/23 13:06:23;;;;;;;0.50;0.50;;;5.40;99.90;;;;;;5027843;28;20057;-95
2020/12/23 13:08:51;;;;;;;0.60;0.60;;;5.40;99.90;;;;;;5045921;28;20028;-96
2020/12/23 13:11:21;;;;;;;1.05;0.40;;;5.40;99.90;;;;;;5026956;28;20053;-95
2020/12/23 13:13:49;;;;;;;0.30;0.30;;;5.40;99.90;;;;;;5025266;28;20057;-95
2020/12/23 13:16:18;;;;;;;0.30;0.30;;;5.40;99.90;;;;;;5034699;28;20041;-96
2020/12/23 13:18:44;;;;;;;0.35;0.35;;;5.40;99.90;;;;;;5029902;28;20116;-96
2020/12/23 13:21:14;;;;;;;2.40;1.80;;;5.40;99.90;;;;;;5027329;28;20064;-94
2020/12/23 13:23:42;;;;;;;0.70;0.70;;;5.50;99.90;;;;;;5041929;28;20039;-95
2020/12/23 13:26:11;;;;;;;0.65;0.60;;;5.40;99.90;;;;;;5028670;28;20025;-96
2020/12/23 13:28:37;;;;;;;0.40;0.40;;;5.40;99.90;;;;;;5030518;28;20479;-96
2020/12/23 13:31:03;;;;;;;0.32;0.32;;;5.40;99.90;;;;;;5033363;28;20029;-96
2020/12/23 13:33:29;;;;;;;0.40;0.40;;;5.40;99.90;;;;;;5049214;28;20108;-96
2020/12/23 13:35:55;;;;;;;0.85;0.40;;;5.40;99.90;;;;;;5026217;28;20469;-94
2020/12/23 13:38:20;;;;;;;0.30;0.30;;;5.40;99.90;;;;;;5026204;28;20113;-95
2020/12/23 13:40:46;;;;;;;0.50;0.50;;;5.40;99.90;;;;;;5025629;28;20048;-95
2020/12/23 13:43:12;;;;;;;0.22;0.22;;;5.40;99.90;;;;;;5026086;28;20056;-94
2020/12/23 13:45:39;;;;;;;0.15;0.15;;;5.50;99.90;;;;;;5023802;28;20393;-93
2020/12/23 13:48:05;;;;;;;0.40;0.40;;;5.50;99.90;;;;;;5021580;28;20068;-95
2020/12/23 13:50:36;;;;;;;0.75;0.30;;;5.50;99.90;;;;;;5021921;28;20069;-94
2020/12/23 13:53:03;;;;;;;0.20;0.20;;;5.50;99.90;;;;;;5023265;28;20131;-94
2020/12/23 13:55:30;;;;;;;0.20;0.20;;;5.50;99.90;;;;;;5023566;28;20033;-93
2020/12/23 13:57:57;;;;;;;0.20;0.20;;;5.50;99.90;;;;;;5023917;28;20036;-95
2020/12/23 14:00:23;;;;;;;0.35;0.30;;;5.60;99.90;;;;;;5034391;28;20052;-94
2020/12/23 14:02:48;;;;;;;0.25;0.25;;;5.60;99.90;;;;;;5024781;28;20032;-93
2020/12/23 14:05:16;;;;;;;0.30;0.20;;;5.70;99.90;;;;;;5027279;28;20033;-95
2020/12/23 14:07:42;;;;;;;0.15;0.15;;;5.70;99.90;;;;;;5027411;28;20040;-95
2020/12/23 14:10:08;;;;;;;0.20;0.20;;;5.70;99.90;;;;;;5010609;28;20379;-94
2020/12/23 14:12:35;;;;;;;0.60;0.43;;;5.80;99.90;;;;;;5024772;28;20025;-93
2020/12/23 14:15:01;;;;;;;0.30;0.30;;;5.80;99.90;;;;;;5028294;28;20017;-95
2020/12/23 14:17:47;;;;;;;0.40;0.40;;;5.80;99.90;;;;;;5034257;28;20033;-95
2020/12/23 14:20:16;;;;;;;0.20;0.20;;;5.90;99.90;;;;;;5036462;28;20078;-96
2020/12/23 14:22:50;;;;;;;0.60;0.60;;;5.90;99.90;;;;;;5033454;28;20036;-95
2020/12/23 14:25:16;;;;;;;0.50;0.40;;;5.90;99.90;;;;;;5004560;28;20038;-95
2020/12/23 14:27:47;;;;;;;0.20;0.20;;;5.90;99.90;;;;;;5038348;28;20046;-94
2020/12/23 14:30:15;;;;;;;0.22;0.22;;;6.00;99.90;;;;;;5107828;23;20070;-95
2020/12/23 14:32:55;;;;;;;0.20;0.20;;;6.00;99.90;;;;;;5098052;28;20013;-94
2020/12/23 14:38:01;;;;;;;0.38;0.28;;;6.00;99.90;;;;;;5601236;22;20056;-95
2020/12/23 14:40:42;;;;;;;0.20;0.20;;;6.00;99.90;;;;;;5243803;22;20049;-96
2020/12/23 14:43:12;;;;;;;0.30;0.30;;;6.10;99.90;;;;;;5058162;28;20052;-96
2020/12/23 14:45:42;;;;;;;0.30;0.20;;;6.10;99.90;;;;;;5039349;28;20040;-96
2020/12/23 14:48:35;;;;;;;0.20;0.20;;;6.00;99.90;;;;;;5055164;28;20060;-96
2020/12/23 14:51:30;;;;;;;0.17;0.17;;;6.00;99.90;;;;;;5073389;28;20564;-96
2020/12/23 14:54:08;;;;;;;0.10;0.10;;;6.00;99.90;;;;;;5069255;28;20025;-96
2020/12/23 14:56:42;;;;;;;0.10;0.10;;;6.00;99.90;;;;;;5034362;28;20041;-95
2020/12/23 14:59:09;;;;;;;0.57;0.30;;;5.90;99.90;;;;;;5058999;28;20017;-96
2020/12/23 15:01:35;;;;;;;0.30;0.20;;;5.90;99.90;;;;;;5056884;28;20029;-96
2020/12/23 15:04:07;;;;;;;0.10;0.10;;;5.90;99.90;;;;;;5053264;28;20025;-96
2020/12/23 15:06:40;;;;;;;0.20;0.20;;;5.90;99.90;;;;;;5049393;28;20093;-96
2020/12/23 15:09:06;;;;;;;0.28;0.20;;;5.80;99.90;;;;;;5053711;28;20025;-95
2020/12/23 15:12:00;;;;;;;0.20;0.20;;;5.80;99.90;;;;;;5055344;28;20053;-95
2020/12/23 15:18:29;;;;;;;0.20;0.10;;;5.70;99.90;;;;;;5052772;28;20053;-96
2020/12/23 15:33:03;;;;;;;0.17;0.17;;;5.30;99.90;;;;;;5150455;22;20053;-96
2020/12/23 15:36:04;;;;;;;0.43;0.28;;;5.30;99.90;;;;;;4957378;29;20043;-94
2020/12/23 15:39:10;;;;;;;0.80;0.30;;;5.20;99.90;;;;;;4967602;29;20178;-95
2020/12/23 15:42:32;;;;;;;;;;;;;;;;;;;;;
2020/12/23 16:28:34;;;;;;;1.48;0.80;;;4.90;99.90;;;;;;5892935;22;20134;31
2020/12/23 16:31:31;;;;;;;0.52;0.40;;;4.90;99.90;;;;;;5322866;23;20982;-96
2020/12/23 16:39:39;;;;;;;0.60;0.60;;;4.80;99.90;;;;;;5915419;22;20040;-96
2020/12/23 16:56:25;;;;;;;1.13;0.70;;;4.80;99.90;;;;;;6217751;22;20500;-96
2020/12/23 17:15:34;;;;;;;5.95;0.77;;;4.70;99.90;;;;;;5168909;22;20079;-96
2020/12/23 17:24:39;;;;;;;2.00;1.08;;;4.70;99.90;;;;;;5133135;22;20124;-96
2020/12/23 17:27:08;;;;;;;;;;;4.70;99.90;;;;;;5070913;28;20033;-94
2020/12/23 17:30:07;;;;;;;1.95;0.50;;;4.70;99.90;;;;;;5057865;28;19908;-96
2020/12/23 17:39:05;;;;;;;;;;;;;;;;;;;;;
2020/12/23 17:42:03;;;;;;;1.40;0.70;;;4.70;99.90;;;;;;5114320;28;20109;-96